Amherst, WI

11:49 PM CDT on July 30, 2016 (GMT -0500)
KWIWAUPA3 | | Change Station

Elev 900 ft 44.38 °N, 89.23 °W | Updated 1 minute ago

Mostly Cloudy
Mostly Cloudy
54.4 °F
Feels Like 54.4 °F
N
0.0
Wind Variable Wind from East
Gusts 0.0 mph

Today
High -- | Low -- °F
--% Chance of Precip.
Yesterday
High -- | Low -- °F
Precip. -- in
Pressure 30.07 in
Visibility 10.0 miles
Clouds Mostly Cloudy 9500 ft
Dew Point 52 °F
Humidity 93%
Rainfall 0.00 in
Snow Depth Not available.
5:42 AM 8:24 PM
Waning Crescent, 9% visible
METAR KSTE 310415Z AUTO 00000KT 10SM BKN095 15/13 A3007 RMK AO2 T01510125
Pressure 30.07 in
Visibility 10.0 miles
Clouds Mostly Cloudy 9500 ft
Dew Point 52 °F
Humidity 93%
Rainfall 0.00 in
Snow Depth Not available.
5:42 AM 8:24 PM
Waning Crescent, 9% visible
METAR KSTE 310415Z AUTO 00000KT 10SM BKN095 15/13 A3007 RMK AO2 T01510125

10-Day Weather Forecast

Almanac

Astronomy

Jul. 30, 2016 Rise Set
Actual Time
Civil Twilight
Nautical Twilight
Astronomical Twilight
Moon
Length of Visible Light
Length of Day
Tomorrow will be .
, % of the Moon is Illuminated

Today's Extremes

State Highs State Lows

Community

WunderPhotos

Upload Photos

1,928,759 photos uploaded!

WunderBlog® & News

Nearby

Air Quality

  Air Quality AQ Index Pollutant
Not available.

Snow Depth

Station Depth Elevation

Earthquake Activity

City Distance Mag. Time & Date
Minimum magnitude displayed is 2.5.

Coastal Water Temperatures

Place Temperature

Stations

Nearby Weather Stations

Station Location Temp. Windchill Dew Point Humidity Wind Precip. Elev Updated Type
                   

Watches & Warnings

There are currently no watches in effect.